ESSP/NRK METAR and TAF weather

Enter ICAO airport designator
Station Type Date Time Source
ESSP METAR 2019/04/18 20:20 UTC NOAA

ESSP 182020Z AUTO 00000KT 9999 NCD 03/M03 Q1036


Station Type Date Time Source
ESSP Decoded METAR 2019/04/18 20:20 UTC NOAA

Norrkoping, Sweden (ESSP) 58-35N 016-09E 0M
Apr 18, 2019 - 04:20 PM EDT / 2019.04.18 2020 UTC
Wind: Calm:0
Visibility: greater than 7 mile(s):0
Temperature: 37 F (3 C)
Dew Point: 26 F (-3 C)
Relative Humidity: 64%
Pressure (altimeter): 30.59 in. Hg (1036 hPa)
ob: ESSP 182020Z AUTO 00000KT 9999 NCD 03/M03 Q1036
cycle: 20

Station Type Date Time Source
ESSP TAF 2018/01/01 02:31 UTC NOAA

TAF ESSP 010130Z 0102/0206 16002KT 9999 BKN004 PROB40 0102/0106 4000 BR SCT004

Example: see airport list